Track Фомичев Александр

Time Latitude Longitude Accuracy (66% radius in meters) Altitude (meters) Speed (km/hour) Bearing (degrees) Battery (%) GPS flag
10:47:33 53.018090 36.147535 4.5509996414185 230 1.289999961853 255.60000610352 46 1 delete
10:47:32 53.018091 36.147552 4.5509996414185 231 1.1200000047684 264 46 1 delete
10:47:22 53.018093 36.147703 4.5509996414185 232 1.7599999904633 242 46 1 delete
10:47:21 53.018098 36.147717 4.5509996414185 232 1.9400000572205 247.39999389648 46 1 delete
10:47:14 53.018160 36.147835 15.170000076294 236 2.4200000762939 231.5 46 1 delete
10:47:12 53.018193 36.147886 15.170000076294 235 2.9400000572205 231.10000610352 46 1 delete
10:47:09 53.018228 36.147937 15.170000076294 236 1.75 228.10000610352 46 1 delete
10:47:04 53.018292 36.148046 15.170000076294 236 1.3300000429153 238.5 46 1 delete
10:47:02 53.018306 36.148083 13.65299987793 235 1.1499999761581 224.30000305176 46 1 delete
10:46:55 53.018323 36.148195 13.65299987793 235 1.6200000047684 236.19999694824 46 1 delete
10:46:52 53.018352 36.148243 13.65299987793 235 0.79000002145767 227.60000610352 46 1 delete
10:46:49 53.018389 36.148319 15.170000076294 236 1.6900000572205 243.69999694824 46 1 delete
10:46:43 53.018430 36.148473 13.65299987793 235 1.6100000143051 233.10000610352 46 1 delete
10:46:41 53.018442 36.148524 13.65299987793 235 1.2699999809265 239 46 1 delete
10:46:37 53.018473 36.148616 13.65299987793 234 1.25 258.5 46 1 delete
10:46:31 53.018501 36.148729 15.170000076294 232 1.7999999523163 238.30000305176 46 1 delete
10:46:30 53.018513 36.148752 15.170000076294 233 1.3600000143051 246.19999694824 46 1 delete
10:46:24 53.018560 36.148894 13.65299987793 228 0.99000000953674 265.79998779297 46 1 delete
10:46:21 53.018576 36.148939 13.65299987793 227 0.93000000715256 263.5 46 1 delete
10:46:17 53.018615 36.149022 13.65299987793 231 2.6300001144409 252.89999389648 46 1 delete
10:46:12 53.018673 36.149173 15.170000076294 232 0.79000002145767 260.29998779297 46 1 delete
10:46:11 53.018683 36.149206 16.687000274658 231 1.789999961853 260.79998779297 46 1 delete
10:46:07 53.018676 36.149335 15.170000076294 230 2.2000000476837 293.79998779297 46 1 delete
10:46:00 53.018650 36.149455 13.65299987793 231 0 0 46 1 delete
10:45:50 53.018648 36.149473 13.65299987793 231 0 0 46 1 delete
10:45:48 53.018638 36.149501 13.65299987793 230 0.93999999761581 296.89999389648 46 1 delete
10:45:40 53.018609 36.149637 15.170000076294 230 0.94999998807907 350.70001220703 46 1 delete
10:45:38 53.018586 36.149649 13.65299987793 230 1.8200000524521 328.79998779297 46 1 delete
10:45:30 53.018558 36.149801 15.170000076294 229 0.9200000166893 241.5 46 1 delete
10:45:23 53.018618 36.149928 13.65299987793 229 1.8099999427795 215.10000610352 46 1 delete
10:45:19 53.018671 36.149998 13.65299987793 234 1.3899999856949 244.39999389648 46 1 delete
10:45:17 53.018682 36.150043 13.65299987793 235 0.91000002622604 249.5 46 1 delete
10:45:09 53.018695 36.150115 13.65299987793 232 0 0 46 1 delete
10:44:59 53.018696 36.150116 13.65299987793 232 0 0 46 1 delete
10:44:49 53.018710 36.150137 13.65299987793 232 0 0 46 1 delete
10:44:39 53.018733 36.150171 13.65299987793 233 0 0 49 1 delete
10:44:38 53.018733 36.150179 13.65299987793 233 0 0 49 1 delete
10:44:28 53.018747 36.150389 13.65299987793 237 1.0900000333786 222.19999694824 49 1 delete
10:44:18 53.018762 36.150432 16.687000274658 241 0 0 49 1 delete
10:44:08 53.018761 36.150432 13.65299987793 241 0 0 49 1 delete
10:43:57 53.018763 36.150407 13.65299987793 243 0.33000001311302 145.89999389648 49 1 delete
10:43:47 53.018765 36.150370 13.65299987793 241 0 0 49 1 delete
10:43:37 53.018765 36.150370 15.170000076294 241 0 0 49 1 delete
10:43:27 53.018765 36.150369 13.65299987793 241 0 0 49 1 delete
10:43:16 53.018765 36.150369 13.65299987793 241 0 0 49 1 delete
10:43:06 53.018765 36.150369 15.170000076294 241 0 0 49 1 delete
10:42:56 53.018764 36.150370 13.65299987793 241 0 0 49 1 delete
10:42:45 53.018764 36.150370 13.65299987793 241 0 0 49 1 delete
10:42:35 53.018764 36.150370 15.170000076294 240 0 0 49 1 delete
10:42:25 53.018764 36.150370 15.170000076294 240 0 0 49 1 delete